Fruitdale, Alabama
Current Conditions -  °F | °C
As of 9:56 AM on Sunday 23 Nov 2014 (Local Time) from KMOB Reporting Station
Thunderstorm Thunderstorm  
Wind Chill: 68°   Ceiling: 9000
Heat Index: 68°   Visibility: 8mi
Dew Point: 67°   Wind: 14mph
Humidity: 96%   Direction: 210°SSW
Pressure: 29.74"   Gusts: NA
Location:  31.34°N, 88.41°W
Report Text: KMOB 231556Z 21012KT 8SM TS SCT019 SCT027CB OVC090 20/19 A2974 RMK AO2 PK WND 20033/1529 RAB22E46 TSB20 SLP069 OCNL LTGICCG E TS E MOV NE P0005 T02000194 $
Loading
Personal Weather Stations






























Interactive Weather Map New forecast layout! Learn more

10-Day Weather Forecast

Advertisements
Track Severe Weather on mobile